Time;durP1;ratioP1;P1;durP2;ratioP2;P2;SDS_P1;SDS_P2;PMS_P1;PMS_P2;Temp;Humidity;BMP_temperature;BMP_pressure;BME280_temperature;BME280_humidity;BME280_pressure;Samples;Min_cycle;Max_cycle;Signal;HPM_P1;HPM_P2
2024/01/09 00:02:17;;;;;;;34.65;32.58;;;;;;;-6.38;100.00;101876.47;4979863;28;20061;-60
2024/01/09 00:04:44;;;;;;;33.97;32.05;;;;;;;-6.29;100.00;101875.22;4980414;28;20243;-60
2024/01/09 00:07:12;;;;;;;34.63;32.65;;;;;;;-6.26;100.00;101883.69;4975608;28;20057;-55
2024/01/09 00:09:39;;;;;;;30.10;28.40;;;;;;;-6.43;100.00;101885.34;4983200;28;20061;-55
2024/01/09 00:12:07;;;;;;;30.55;28.65;;;;;;;-6.46;100.00;101887.13;4982211;28;20057;-55
2024/01/09 00:14:34;;;;;;;30.88;28.88;;;;;;;-6.49;100.00;101887.28;4990945;28;20112;-60
2024/01/09 00:17:01;;;;;;;32.30;30.30;;;;;;;-6.20;100.00;101895.50;4984532;28;20520;-60
2024/01/09 00:19:28;;;;;;;38.78;36.30;;;;;;;-6.49;100.00;101891.59;4980237;28;20070;-60
2024/01/09 00:21:56;;;;;;;35.13;32.83;;;;;;;-6.43;100.00;101893.09;4984471;28;20058;-60
2024/01/09 00:24:24;;;;;;;37.65;35.45;;;;;;;-6.17;100.00;101897.94;4982382;28;20043;-60
2024/01/09 00:26:51;;;;;;;36.85;34.75;;;;;;;-6.25;100.00;101902.63;4984603;28;20390;-60
2024/01/09 00:29:18;;;;;;;35.78;33.67;;;;;;;-6.20;100.00;101903.25;4986090;28;20086;-54
2024/01/09 00:31:45;;;;;;;31.63;29.73;;;;;;;-6.20;100.00;101898.09;4985001;28;20062;-55
2024/01/09 00:34:12;;;;;;;31.90;30.00;;;;;;;-6.14;100.00;101902.97;4982235;28;20039;-54
2024/01/09 00:36:43;;;;;;;35.70;33.50;;;;;;;-6.26;100.00;101909.53;4985973;28;20066;-55
2024/01/09 00:39:10;;;;;;;38.37;36.17;;;;;;;-6.25;100.00;101911.22;4990471;28;20513;-55
2024/01/09 00:41:38;;;;;;;35.35;33.25;;;;;;;-6.33;100.00;101910.69;4985299;28;20062;-55
2024/01/09 00:44:05;;;;;;;36.08;33.88;;;;;;;-6.28;100.00;101905.34;4986066;28;20053;-55
2024/01/09 00:46:32;;;;;;;37.60;35.40;;;;;;;-6.14;100.00;101912.47;4980252;28;20205;-55
2024/01/09 00:48:59;;;;;;;34.65;32.55;;;;;;;-6.31;100.00;101914.06;4980461;28;20520;-55
2024/01/09 00:51:26;;;;;;;32.05;30.15;;;;;;;-6.24;100.00;101920.63;4984911;28;20451;-55
2024/01/09 00:53:54;;;;;;;39.30;37.10;;;;;;;-6.02;100.00;101923.13;4982019;28;20058;-55
2024/01/09 00:56:22;;;;;;;33.65;31.75;;;;;;;-6.06;100.00;101923.31;4983484;28;20211;-54
2024/01/09 00:58:50;;;;;;;34.65;32.65;;;;;;;-6.00;100.00;101913.53;4978231;28;20110;-55
2024/01/09 01:01:17;;;;;;;34.90;31.88;;;;;;;-5.52;100.00;101926.81;4979692;28;20046;-60
2024/01/09 01:03:44;;;;;;;34.80;32.60;;;;;;;-6.03;100.00;101924.00;4984158;28;20409;-60
2024/01/09 01:06:11;;;;;;;35.20;33.10;;;;;;;-6.16;100.00;101925.47;4984357;28;20508;-55
2024/01/09 01:08:40;;;;;;;36.65;34.45;;;;;;;-6.07;100.00;101932.81;4983579;28;20074;-55
2024/01/09 01:11:08;;;;;;;32.70;30.80;;;;;;;-6.07;100.00;101938.00;4978596;28;20054;-55
2024/01/09 01:13:35;;;;;;;33.47;31.52;;;;;;;-6.15;100.00;101932.31;4987446;28;20061;-54
2024/01/09 01:16:03;;;;;;;38.30;36.10;;;;;;;-6.20;100.00;101946.38;4985062;28;20042;-55
2024/01/09 01:18:30;;;;;;;33.60;31.50;;;;;;;-6.25;100.00;101937.06;4984554;28;20051;-59
2024/01/09 01:20:57;;;;;;;33.72;31.65;;;;;;;-6.20;100.00;101936.88;4981761;28;20065;-55
2024/01/09 01:23:24;;;;;;;32.95;30.95;;;;;;;-5.91;100.00;101937.28;4983896;28;20047;-55
2024/01/09 01:25:50;;;;;;;32.97;31.08;;;;;;;-6.16;100.00;101940.16;4982586;28;20503;-55
2024/01/09 01:28:17;;;;;;;30.38;28.58;;;;;;;-5.88;100.00;101947.50;4977552;28;20054;-56
2024/01/09 01:30:44;;;;;;;32.63;30.55;;;;;;;-6.11;100.00;101944.22;4981361;28;20062;-54
2024/01/09 01:33:12;;;;;;;30.80;29.00;;;;;;;-6.10;100.00;101947.66;4984643;28;20066;-54
2024/01/09 01:35:39;;;;;;;30.90;29.10;;;;;;;-6.02;100.00;101940.38;4982024;28;20061;-59
2024/01/09 01:38:06;;;;;;;35.40;33.30;;;;;;;-5.98;100.00;101943.69;4983343;28;20428;-55
2024/01/09 01:40:33;;;;;;;34.60;32.60;;;;;;;-6.07;100.00;101939.75;4983031;28;20068;-54
2024/01/09 01:43:02;;;;;;;34.08;32.17;;;;;;;-5.98;100.00;101941.94;4983011;28;20054;-55
2024/01/09 01:45:29;;;;;;;35.58;33.53;;;;;;;-5.91;100.00;101943.28;4983714;28;20046;-55
2024/01/09 01:47:56;;;;;;;32.78;30.88;;;;;;;-5.94;100.00;101937.44;4977560;28;20443;-55
2024/01/09 01:50:25;;;;;;;29.88;28.05;;;;;;;-5.85;100.00;101948.19;4983096;28;20050;-55
2024/01/09 01:52:52;;;;;;;38.10;35.90;;;;;;;-5.77;100.00;101942.66;4984309;28;20500;-55
2024/01/09 01:55:24;;;;;;;39.85;37.55;;;;;;;-5.83;100.00;101941.19;4985792;28;20310;-54
2024/01/09 01:57:54;;;;;;;36.17;34.08;;;;;;;-5.87;100.00;101950.03;4979260;28;20113;-55
2024/01/09 02:00:23;;;;;;;34.45;32.35;;;;;;;-5.80;100.00;101955.75;4984265;28;20528;-55
2024/01/09 02:02:52;;;;;;;34.00;32.00;;;;;;;-5.84;100.00;101956.78;4980650;28;20050;-55
2024/01/09 02:05:20;;;;;;;34.38;32.17;;;;;;;-5.79;100.00;101960.00;4982015;28;20042;-60
2024/01/09 02:07:50;;;;;;;35.28;32.75;;;;;;;-5.92;100.00;101957.13;4983983;28;20061;-60
2024/01/09 02:10:19;;;;;;;32.10;30.10;;;;;;;-5.90;100.00;101964.81;4984610;28;20057;-55
2024/01/09 02:12:46;;;;;;;32.45;30.45;;;;;;;-5.93;100.00;101957.22;4978925;28;20463;-55
2024/01/09 02:15:13;;;;;;;31.52;29.38;;;;;;;-5.97;100.00;101958.28;4981082;28;20531;-55
2024/01/09 02:17:40;;;;;;;32.13;30.23;;;;;;;-5.96;100.00;101968.56;4982832;28;20058;-55
2024/01/09 02:20:09;;;;;;;33.05;31.05;;;;;;;-4.84;100.00;101971.06;4978195;28;20078;-60
2024/01/09 02:22:36;;;;;;;29.40;27.40;;;;;;;-5.92;100.00;101969.25;4981391;28;20058;-55
2024/01/09 02:25:05;;;;;;;27.98;26.17;;;;;;;-5.87;100.00;101977.63;4977399;28;20050;-60
2024/01/09 02:27:40;;;;;;;26.08;24.25;;;;;;;-5.54;100.00;101973.53;4986860;28;20397;-60
2024/01/09 02:30:09;;;;;;;27.85;26.05;;;;;;;-5.57;100.00;101971.06;4985434;28;20291;-60
2024/01/09 02:32:37;;;;;;;28.10;26.50;;;;;;;-6.02;100.00;101972.28;4984558;28;20369;-66
2024/01/09 02:35:05;;;;;;;25.77;23.98;;;;;;;-5.98;100.00;101974.72;4984483;28;20069;-60
2024/01/09 02:37:32;;;;;;;26.60;24.90;;;;;;;-6.12;100.00;101977.91;4983777;28;20058;-55
2024/01/09 02:40:00;;;;;;;25.60;23.80;;;;;;;-5.78;100.00;101979.78;4977732;28;20514;-60
2024/01/09 02:42:27;;;;;;;25.05;23.35;;;;;;;-5.98;100.00;101991.09;4981250;28;20136;-60
2024/01/09 02:44:55;;;;;;;27.75;26.05;;;;;;;-6.23;100.00;101976.66;4983441;28;20054;-60
2024/01/09 02:47:23;;;;;;;23.73;22.02;;;;;;;-5.90;100.00;101991.56;4980908;28;20058;-60
2024/01/09 02:49:50;;;;;;;25.08;23.27;;;;;;;-6.15;100.00;101990.97;4984820;28;20050;-55
2024/01/09 02:52:18;;;;;;;24.55;23.05;;;;;;;-6.09;100.00;101983.78;4980892;28;20054;-55
2024/01/09 02:54:45;;;;;;;23.17;21.73;;;;;;;-5.56;100.00;101990.03;4983892;28;20428;-71
2024/01/09 02:57:13;;;;;;;23.95;22.35;;;;;;;-5.90;100.00;101991.56;4982138;28;20496;-60
2024/01/09 02:59:40;;;;;;;22.30;21.00;;;;;;;-6.04;100.00;101996.53;4981077;28;20050;-60
2024/01/09 03:02:07;;;;;;;25.42;23.80;;;;;;;-6.03;100.00;101991.28;4983241;28;20055;-60
2024/01/09 03:04:35;;;;;;;26.05;24.45;;;;;;;-6.02;100.00;101998.16;4968426;28;20456;-60
2024/01/09 03:07:02;;;;;;;28.25;26.55;;;;;;;-6.10;100.00;101999.38;4976449;28;20066;-60
2024/01/09 03:09:29;;;;;;;30.02;27.88;;;;;;;-5.95;100.00;102001.31;4968375;28;20575;-60
2024/01/09 03:11:56;;;;;;;30.67;28.88;;;;;;;-6.03;100.00;101995.63;4974422;28;20059;-60
2024/01/09 03:14:22;;;;;;;24.65;23.05;;;;;;;-6.05;100.00;102002.59;4986363;28;20089;-60
2024/01/09 03:16:50;;;;;;;24.42;22.83;;;;;;;-6.05;100.00;101993.09;4984629;28;20050;-60
2024/01/09 03:19:19;;;;;;;25.98;24.42;;;;;;;-6.02;100.00;101998.16;4981925;28;20549;-60
2024/01/09 03:21:48;;;;;;;23.83;22.42;;;;;;;-6.08;100.00;102013.94;4977730;28;20455;-60
2024/01/09 03:24:15;;;;;;;27.10;25.10;;;;;;;-5.94;100.00;102010.72;4977097;28;20078;-60
2024/01/09 03:26:43;;;;;;;28.58;26.88;;;;;;;-5.95;100.00;102010.81;4980079;28;20129;-60
2024/01/09 03:29:10;;;;;;;29.25;27.20;;;;;;;-6.11;100.00;102014.06;4984301;28;20503;-60
2024/01/09 03:31:36;;;;;;;29.08;27.17;;;;;;;-6.15;100.00;102017.69;4978795;28;20440;-60
2024/01/09 03:34:03;;;;;;;32.95;31.00;;;;;;;-6.08;100.00;102020.84;4984755;28;20062;-60
2024/01/09 03:36:31;;;;;;;31.75;29.85;;;;;;;-5.71;100.00;102022.63;4980788;28;20062;-60
2024/01/09 03:38:59;;;;;;;28.73;26.95;;;;;;;-5.88;100.00;102025.13;4982196;28;20061;-60
2024/01/09 03:41:26;;;;;;;28.25;26.45;;;;;;;-5.90;100.00;102024.34;4978496;28;20520;-54
2024/01/09 03:43:53;;;;;;;29.73;27.73;;;;;;;-5.91;100.00;102030.44;4981414;28;20080;-54
2024/01/09 03:46:20;;;;;;;25.77;23.98;;;;;;;-4.54;100.00;102032.66;4983014;28;20069;-55
2024/01/09 03:48:48;;;;;;;36.03;32.97;;;;;;;-5.94;100.00;102039.19;4979418;28;20424;-54
2024/01/09 03:51:14;;;;;;;28.30;26.33;;;;;;;-5.44;100.00;102043.00;4976977;28;20089;-55
2024/01/09 03:53:43;;;;;;;30.15;28.02;;;;;;;-5.90;100.00;102045.03;4981042;28;20062;-55
2024/01/09 03:56:12;;;;;;;26.70;25.00;;;;;;;-5.83;100.00;102060.25;4980265;28;20050;-54
2024/01/09 03:58:39;;;;;;;24.60;23.00;;;;;;;-5.77;100.00;102062.56;4973021;28;20055;-55
2024/01/09 04:01:06;;;;;;;26.23;24.05;;;;;;;-4.43;100.00;102072.72;4980721;28;20060;-55
2024/01/09 04:03:32;;;;;;;28.70;27.00;;;;;;;-4.55;100.00;102069.88;4979519;28;20488;-55
2024/01/09 04:05:59;;;;;;;23.73;22.20;;;;;;;-5.59;100.00;102075.59;4977481;28;20054;-55
2024/01/09 04:08:26;;;;;;;28.52;26.63;;;;;;;-5.54;100.00;102074.50;4980281;28;20059;-55
2024/01/09 04:10:53;;;;;;;28.67;26.88;;;;;;;-5.15;100.00;102080.50;4982703;28;20057;-55
2024/01/09 04:13:22;;;;;;;27.13;25.52;;;;;;;-5.61;100.00;102087.75;4978388;28;20505;-60
2024/01/09 04:15:48;;;;;;;27.63;25.63;;;;;;;-5.76;100.00;102076.34;4976270;28;20054;-55
2024/01/09 04:18:15;;;;;;;25.13;23.52;;;;;;;-5.62;100.00;102079.16;4974888;28;20057;-59
2024/01/09 04:20:43;;;;;;;26.98;24.35;;;;;;;-4.62;100.00;102077.13;4982762;28;20436;-55
2024/01/09 04:23:10;;;;;;;24.83;23.33;;;;;;;-5.92;100.00;102077.91;4984384;28;20042;-55
2024/01/09 04:25:37;;;;;;;25.42;23.83;;;;;;;-5.96;100.00;102076.38;4974637;28;20046;-59
2024/01/09 04:28:04;;;;;;;24.63;23.02;;;;;;;-5.65;100.00;102081.88;4975043;28;20057;-55
2024/01/09 04:30:32;;;;;;;25.55;23.85;;;;;;;-5.80;100.00;102083.41;4980937;28;20050;-60
2024/01/09 04:32:59;;;;;;;27.13;25.33;;;;;;;-5.82;100.00;102077.44;4980507;28;20456;-55
2024/01/09 04:35:26;;;;;;;27.85;26.25;;;;;;;-5.16;100.00;102086.59;4983302;28;20114;-55
2024/01/09 04:37:53;;;;;;;27.10;25.40;;;;;;;-5.01;100.00;102104.03;4982442;28;20050;-55
2024/01/09 04:40:20;;;;;;;25.77;24.27;;;;;;;-4.73;100.00;102100.13;4980251;28;20451;-55
2024/01/09 04:42:47;;;;;;;25.52;24.05;;;;;;;-5.40;100.00;102109.28;4979906;28;20054;-55
2024/01/09 04:45:14;;;;;;;27.48;25.77;;;;;;;-5.39;100.00;102109.19;4979959;28;20058;-55
2024/01/09 04:47:42;;;;;;;29.25;27.55;;;;;;;-6.02;100.00;102124.91;4975383;28;20050;-55
2024/01/09 04:50:10;;;;;;;22.48;20.98;;;;;;;-6.01;100.00;102131.75;4979726;28;20046;-54
2024/01/09 04:52:37;;;;;;;23.65;22.25;;;;;;;-6.08;100.00;102138.13;4976296;28;20660;-55
2024/01/09 04:55:04;;;;;;;23.23;21.83;;;;;;;-5.85;100.00;102146.59;4983004;28;20058;-55
2024/01/09 04:57:31;;;;;;;26.85;25.25;;;;;;;-5.88;100.00;102150.16;4978554;28;20542;-55
2024/01/09 04:59:58;;;;;;;51.75;48.25;;;;;;;-5.90;100.00;102154.59;4986035;28;20500;-60
2024/01/09 05:02:25;;;;;;;26.00;24.38;;;;;;;-5.80;100.00;102149.84;4981750;28;20510;-60
2024/01/09 05:04:53;;;;;;;27.77;25.98;;;;;;;-2.68;100.00;102164.06;4986711;28;20046;-59
2024/01/09 05:07:20;;;;;;;25.77;24.10;;;;;;;-1.46;100.00;102149.13;4986976;28;20507;-61
2024/01/09 05:09:47;;;;;;;24.50;22.90;;;;;;;-5.66;100.00;102159.59;4982919;28;20072;-54
2024/01/09 05:12:14;;;;;;;24.45;22.90;;;;;;;-5.86;100.00;102161.31;4980386;28;20133;-60
2024/01/09 05:14:41;;;;;;;23.35;21.95;;;;;;;-5.42;100.00;102174.06;4984275;28;20057;-59
2024/01/09 05:17:08;;;;;;;23.20;21.70;;;;;;;-5.93;100.00;102192.69;4982353;28;20058;-60
2024/01/09 05:19:35;;;;;;;22.92;21.40;;;;;;;-5.98;100.00;102199.81;4975700;28;20492;-55
2024/01/09 05:22:03;;;;;;;24.42;22.73;;;;;;;-6.03;100.00;102226.72;4972853;28;20050;-60
2024/01/09 05:24:30;;;;;;;23.63;22.02;;;;;;;-6.14;100.00;102230.63;4983564;28;20061;-55
2024/01/09 05:26:58;;;;;;;25.73;24.02;;;;;;;-6.14;100.00;102241.84;4983691;28;20057;-60
2024/01/09 05:29:25;;;;;;;22.40;20.90;;;;;;;-6.17;100.00;102252.31;4987927;28;20061;-60
2024/01/09 05:31:52;;;;;;;24.05;22.25;;;;;;;-6.01;100.00;102248.19;4985224;28;20053;-60
2024/01/09 05:34:19;;;;;;;25.48;23.90;;;;;;;-6.14;100.00;102247.00;4985378;28;20050;-55
2024/01/09 05:36:45;;;;;;;26.00;24.05;;;;;;;-6.12;100.00;102252.09;4925080;28;20057;-54
2024/01/09 05:39:14;;;;;;;25.40;23.80;;;;;;;-6.03;100.00;102249.16;5019963;28;20053;-59
2024/01/09 05:41:41;;;;;;;21.38;19.92;;;;;;;-6.19;100.00;102251.50;5004203;28;20140;-60
2024/01/09 05:44:07;;;;;;;22.73;21.13;;;;;;;-6.10;100.00;102253.75;5007405;28;20550;-59
2024/01/09 05:46:34;;;;;;;22.52;21.10;;;;;;;-6.07;100.00;102268.31;5006119;28;20138;-55
2024/01/09 05:49:01;;;;;;;22.80;21.40;;;;;;;-6.10;100.00;102274.44;5001720;28;20508;-55
2024/01/09 05:51:28;;;;;;;23.50;21.90;;;;;;;-6.10;100.00;102282.19;5006655;28;20139;-54
2024/01/09 05:53:55;;;;;;;23.65;22.13;;;;;;;-5.61;100.00;102269.81;5006971;28;20049;-55
2024/01/09 05:56:23;;;;;;;24.80;23.30;;;;;;;-6.11;100.00;102257.25;5005580;28;20042;-55
2024/01/09 05:58:50;;;;;;;22.83;21.30;;;;;;;-6.10;100.00;102260.66;5003255;28;20046;-55
2024/01/09 06:01:17;;;;;;;22.50;21.00;;;;;;;-6.20;100.00;102252.44;5004376;28;20488;-60
2024/01/09 06:03:44;;;;;;;24.05;22.30;;;;;;;-6.23;100.00;102270.66;5005853;28;20057;-60
2024/01/09 06:06:11;;;;;;;23.52;22.02;;;;;;;-5.27;100.00;102273.59;5005816;28;20435;-60
2024/01/09 06:08:38;;;;;;;24.38;22.45;;;;;;;-5.61;100.00;102284.53;5004071;28;20632;-60
2024/01/09 06:11:05;;;;;;;21.83;20.42;;;;;;;-5.88;100.00;102266.63;5006022;28;20439;-60
2024/01/09 06:13:33;;;;;;;21.13;19.58;;;;;;;-6.04;100.00;102273.34;4998673;28;20054;-55
2024/01/09 06:16:00;;;;;;;20.17;18.88;;;;;;;-6.20;100.00;102280.00;5003465;28;20411;-54
2024/01/09 06:18:29;;;;;;;19.27;18.08;;;;;;;-6.11;100.00;102287.41;4996768;28;20047;-59
2024/01/09 06:20:55;;;;;;;19.52;18.33;;;;;;;-6.02;100.00;102292.22;5006175;28;20054;-60
2024/01/09 06:23:22;;;;;;;20.38;18.98;;;;;;;-6.04;100.00;102304.41;5000077;28;20042;-60
2024/01/09 06:25:49;;;;;;;20.00;18.60;;;;;;;-6.01;100.00;102310.28;5002277;28;20058;-60
2024/01/09 06:28:16;;;;;;;18.35;17.35;;;;;;;-5.61;100.00;102316.44;4999299;28;20439;-60
2024/01/09 06:30:44;;;;;;;19.30;18.13;;;;;;;-5.91;100.00;102308.16;4996439;28;20480;-55
2024/01/09 06:33:12;;;;;;;23.38;21.92;;;;;;;-6.05;100.00;102320.81;4998582;28;20046;-55
2024/01/09 06:35:38;;;;;;;22.17;20.88;;;;;;;-6.06;100.00;102306.19;4991793;28;20054;-54
2024/01/09 06:38:05;;;;;;;21.40;20.10;;;;;;;-6.33;100.00;102318.44;5003683;28;20058;-55
2024/01/09 06:40:32;;;;;;;21.77;20.48;;;;;;;-6.22;100.00;102321.47;4998861;28;20062;-55
2024/01/09 06:42:59;;;;;;;21.70;20.30;;;;;;;-6.35;100.00;102318.50;5002406;28;20069;-55
2024/01/09 06:45:26;;;;;;;20.77;19.48;;;;;;;-6.23;100.00;102323.22;4994975;28;20069;-55
2024/01/09 06:47:54;;;;;;;21.42;20.13;;;;;;;-6.30;100.00;102332.09;5000796;28;20487;-60
2024/01/09 06:50:21;;;;;;;20.27;18.98;;;;;;;-6.49;100.00;102339.69;4997893;28;20427;-54
2024/01/09 06:52:48;;;;;;;20.50;19.30;;;;;;;-6.56;100.00;102340.81;5002928;28;20065;-54
2024/01/09 06:55:15;;;;;;;19.40;18.30;;;;;;;-5.95;100.00;102342.84;5004740;28;20053;-60
2024/01/09 06:57:42;;;;;;;17.65;16.65;;;;;;;-6.38;100.00;102357.41;5001940;28;20082;-59
2024/01/09 07:00:09;;;;;;;22.10;20.45;;;;;;;-6.47;100.00;102358.59;5003475;28;20450;-55
2024/01/09 07:02:36;;;;;;;20.02;18.73;;;;;;;-6.34;100.00;102358.13;5004847;28;20064;-55
2024/01/09 07:05:05;;;;;;;20.25;18.95;;;;;;;-6.49;100.00;102355.22;5001120;28;20065;-55
2024/01/09 07:07:32;;;;;;;21.92;20.52;;;;;;;-6.34;100.00;102348.63;5003380;28;20046;-60
2024/01/09 07:09:58;;;;;;;20.48;19.27;;;;;;;-6.32;100.00;102344.25;5002832;28;20085;-54
2024/01/09 07:12:25;;;;;;;20.88;19.58;;;;;;;-6.63;100.00;102348.84;5003862;28;20217;-59
2024/01/09 07:14:51;;;;;;;19.15;17.95;;;;;;;-6.61;100.00;102357.41;5006051;28;20451;-56
2024/01/09 07:17:18;;;;;;;20.60;19.40;;;;;;;-3.83;100.00;102372.63;4999884;28;20049;-54
2024/01/09 07:19:45;;;;;;;20.75;19.27;;;;;;;-6.12;100.00;102364.19;4999720;28;20058;-60
2024/01/09 07:22:13;;;;;;;20.63;19.23;;;;;;;-6.20;100.00;102360.19;5000060;28;20510;-60
2024/01/09 07:24:40;;;;;;;20.30;19.00;;;;;;;-6.23;100.00;102362.00;5003249;28;20061;-60
2024/01/09 07:27:07;;;;;;;19.08;17.88;;;;;;;-6.14;100.00;102363.41;5003555;28;20042;-60
2024/01/09 07:29:34;;;;;;;20.10;18.80;;;;;;;-5.50;100.00;102357.44;5005024;28;20534;-55
2024/01/09 07:32:00;;;;;;;20.08;18.77;;;;;;;-5.29;100.00;102355.72;5001647;28;20065;-55
2024/01/09 07:34:27;;;;;;;20.40;19.00;;;;;;;-5.93;100.00;102368.66;5002884;28;20046;-55
2024/01/09 07:36:54;;;;;;;20.52;19.23;;;;;;;-5.86;100.00;102388.22;5001309;28;20046;-55
2024/01/09 07:39:22;;;;;;;20.08;18.77;;;;;;;-6.05;100.00;102396.69;5002993;28;20452;-54
2024/01/09 07:41:49;;;;;;;20.25;18.95;;;;;;;-6.19;100.00;102398.94;4999846;28;20467;-54
2024/01/09 07:44:17;;;;;;;20.55;19.25;;;;;;;-6.14;100.00;102397.06;5003436;28;20046;-55
2024/01/09 07:46:44;;;;;;;19.85;18.65;;;;;;;-4.73;100.00;102419.88;5003044;28;20061;-55
2024/01/09 07:49:11;;;;;;;19.65;18.35;;;;;;;-5.62;100.00;102409.72;4996067;28;20060;-55
2024/01/09 07:51:38;;;;;;;19.17;17.98;;;;;;;-5.92;100.00;102422.91;4997865;28;20571;-55
2024/01/09 07:54:05;;;;;;;19.38;18.17;;;;;;;-5.93;100.00;102415.22;4990624;28;20061;-60
2024/01/09 07:56:33;;;;;;;20.33;19.02;;;;;;;-5.22;100.00;102434.88;5003054;28;20397;-60
2024/01/09 07:59:00;;;;;;;21.48;20.10;;;;;;;-6.11;100.00;102432.28;5003214;28;20056;-60
2024/01/09 08:01:29;;;;;;;21.15;19.75;;;;;;;-4.93;100.00;102441.47;4999827;28;20050;-60
2024/01/09 08:03:55;;;;;;;24.40;22.80;;;;;;;-5.14;100.00;102432.81;4996727;28;20057;-60
2024/01/09 08:06:22;;;;;;;23.40;21.85;;;;;;;-5.48;100.00;102435.88;5001746;28;20447;-60
2024/01/09 08:08:49;;;;;;;22.75;21.35;;;;;;;-6.02;100.00;102440.56;4999954;28;20061;-60
2024/01/09 08:11:16;;;;;;;21.98;20.58;;;;;;;-5.41;100.00;102449.47;5002180;28;20388;-60
2024/01/09 08:13:45;;;;;;;22.52;21.13;;;;;;;-5.84;100.00;102458.84;5005436;28;20486;-60
2024/01/09 08:16:11;;;;;;;20.60;19.20;;;;;;;-5.15;100.00;102459.59;4999746;28;20176;-60
2024/01/09 08:18:38;;;;;;;21.13;19.73;;;;;;;-6.45;100.00;102467.94;5001220;28;20467;-60
2024/01/09 08:21:06;;;;;;;20.65;19.25;;;;;;;-6.20;100.00;102472.28;4995426;28;20054;-60
2024/01/09 08:23:33;;;;;;;24.95;23.35;;;;;;;-4.54;100.00;102482.16;4994910;28;20054;-55
2024/01/09 08:26:00;;;;;;;19.80;18.60;;;;;;;-6.29;100.00;102490.72;4991030;28;20058;-55
2024/01/09 08:28:27;;;;;;;20.85;19.65;;;;;;;-6.36;100.00;102494.41;5001471;28;20046;-54
2024/01/09 08:30:55;;;;;;;20.35;19.15;;;;;;;-4.40;100.00;102494.56;4998111;28;20046;-60
2024/01/09 08:33:21;;;;;;;20.63;19.33;;;;;;;-5.55;100.00;102497.44;5002007;28;20046;-55
2024/01/09 08:35:50;;;;;;;19.92;18.63;;;;;;;-5.86;100.00;102500.34;5006154;28;20072;-60
2024/01/09 08:38:17;;;;;;;20.00;18.80;;;;;;;-6.29;100.00;102517.44;5001286;28;20038;-55
2024/01/09 08:40:44;;;;;;;19.70;18.50;;;;;;;-6.10;100.00;102522.78;5004466;28;20587;-60
2024/01/09 08:43:11;;;;;;;18.33;17.13;;;;;;;-6.53;100.00;102520.84;5001365;28;20103;-60
2024/01/09 08:45:38;;;;;;;18.67;17.48;;;;;;;-6.65;100.00;102522.09;5002097;28;20108;-54
2024/01/09 08:48:07;;;;;;;20.35;18.88;;;;;;;-6.39;100.00;102518.63;5003492;28;20509;-55
2024/01/09 08:50:34;;;;;;;19.80;18.70;;;;;;;-6.36;100.00;102521.09;4996645;28;20519;-55
2024/01/09 08:53:01;;;;;;;22.35;21.15;;;;;;;-6.36;100.00;102531.44;4998551;28;20086;-55
2024/01/09 08:55:28;;;;;;;20.25;19.05;;;;;;;-6.77;100.00;102522.50;5001849;28;20058;-55
2024/01/09 08:57:55;;;;;;;19.00;17.90;;;;;;;-6.45;100.00;102534.34;4999066;28;20050;-55
2024/01/09 09:00:22;;;;;;;19.48;18.27;;;;;;;-6.64;100.00;102526.34;5008274;28;20425;-64
2024/01/09 09:02:50;;;;;;;19.60;18.35;;;;;;;-7.03;100.00;102528.50;5011856;28;20061;-60
2024/01/09 09:05:19;;;;;;;19.95;18.65;;;;;;;-6.14;100.00;102538.47;5017001;28;20105;-59
2024/01/09 09:07:46;;;;;;;19.92;18.65;;;;;;;-6.67;100.00;102547.13;5013456;28;20530;-60
2024/01/09 09:10:13;;;;;;;21.75;20.45;;;;;;;-3.19;100.00;102522.03;5016457;28;20054;-60
2024/01/09 09:12:40;;;;;;;22.20;20.80;;;;;;;-5.41;100.00;102537.53;5016568;28;20530;-60
2024/01/09 09:15:07;;;;;;;21.42;20.13;;;;;;;-6.04;100.00;102551.03;5008935;28;20139;-60
2024/01/09 09:17:34;;;;;;;20.15;18.95;;;;;;;-6.40;100.00;102563.47;5013162;28;20104;-60
2024/01/09 09:20:02;;;;;;;20.60;19.35;;;;;;;-6.87;100.00;102558.09;5019372;28;20439;-60
2024/01/09 09:22:30;;;;;;;20.48;19.17;;;;;;;-3.88;100.00;102561.53;5015388;28;20049;-60
2024/01/09 09:24:57;;;;;;;20.80;19.60;;;;;;;-5.97;100.00;102563.75;5012042;28;20144;-60
2024/01/09 09:27:24;;;;;;;20.50;19.30;;;;;;;-6.58;100.00;102553.75;5013526;28;20049;-60
2024/01/09 09:29:52;;;;;;;21.42;20.33;;;;;;;-5.24;100.00;102557.59;5012863;28;20057;-59
2024/01/09 09:32:19;;;;;;;21.70;20.70;;;;;;;-6.60;100.00;102569.28;5012824;28;20050;-60
2024/01/09 09:34:46;;;;;;;23.27;22.08;;;;;;;-7.02;100.00;102561.16;5017184;28;20100;-60
2024/01/09 09:37:13;;;;;;;22.05;20.85;;;;;;;-5.59;100.00;102565.78;5014462;28;20492;-60
2024/01/09 09:39:41;;;;;;;20.75;19.75;;;;;;;-6.38;100.00;102566.00;5017057;28;20053;-55
2024/01/09 09:42:09;;;;;;;21.02;19.92;;;;;;;-6.20;100.00;102565.41;5004664;28;20064;-54
2024/01/09 09:44:38;;;;;;;20.00;18.95;;;;;;;-5.24;100.00;102552.41;5005794;28;20065;-55
2024/01/09 09:47:07;;;;;;;21.17;20.17;;;;;;;-6.58;100.00;102556.34;5005321;28;20661;-60
2024/01/09 09:49:38;;;;;;;22.73;21.25;;;;;;;-6.13;100.00;102548.78;5001297;28;20062;-59
2024/01/09 09:52:07;;;;;;;22.35;21.15;;;;;;;-6.11;100.00;102549.56;5004929;28;20042;-60
2024/01/09 09:54:37;;;;;;;22.33;21.23;;;;;;;-6.99;100.00;102541.28;5006465;28;20463;-54
2024/01/09 09:57:06;;;;;;;20.20;19.00;;;;;;;-7.10;100.00;102527.00;5002642;28;20053;-54
2024/01/09 09:59:33;;;;;;;20.75;19.58;;;;;;;-5.72;100.00;102527.44;5004063;28;20451;-54
2024/01/09 10:02:05;;;;;;;22.38;21.17;;;;;;;-5.37;100.00;102526.13;5005368;28;20180;-54
2024/01/09 10:04:42;;;;;;;22.42;21.23;;;;;;;-5.56;100.00;102516.47;5005228;28;20050;-54
2024/01/09 10:07:10;;;;;;;20.88;19.77;;;;;;;-6.63;100.00;102529.78;5005740;28;20050;-59
2024/01/09 10:09:45;;;;;;;20.73;19.42;;;;;;;-6.74;100.00;102533.56;5005131;28;20054;-60
2024/01/09 10:12:13;;;;;;;20.48;18.88;;;;;;;-6.31;100.00;102528.72;5000518;28;20384;-60
2024/01/09 10:15:04;;;;;;;19.92;18.73;;;;;;;-6.53;100.00;102537.19;4998706;28;20112;-59
2024/01/09 10:17:31;;;;;;;23.25;21.95;;;;;;;-2.50;100.00;102540.31;5001765;28;20168;-60
2024/01/09 10:19:58;;;;;;;22.58;21.17;;;;;;;-6.75;100.00;102539.63;4997507;28;20054;-59
2024/01/09 10:22:29;;;;;;;22.25;20.95;;;;;;;-6.22;100.00;102546.50;5001380;28;20467;-59
2024/01/09 10:24:57;;;;;;;20.92;19.73;;;;;;;-4.73;100.00;102546.06;5002042;28;20133;-59
2024/01/09 10:27:25;;;;;;;21.88;20.40;;;;;;;-6.84;100.00;102537.34;4992966;28;20049;-59
2024/01/09 10:29:53;;;;;;;21.83;20.52;;;;;;;-5.87;100.00;102550.41;5001673;28;20057;-59
2024/01/09 10:32:19;;;;;;;22.25;20.95;;;;;;;-6.93;100.00;102541.09;5001713;28;20050;-59
2024/01/09 10:34:47;;;;;;;21.55;20.25;;;;;;;-4.68;100.00;102545.00;5002114;28;20061;-59
2024/01/09 10:37:14;;;;;;;20.98;19.58;;;;;;;-7.05;100.00;102549.22;5001857;28;20137;-59
2024/01/09 10:39:42;;;;;;;23.83;21.88;;;;;;;-6.56;100.00;102567.47;5001224;28;20116;-59
2024/01/09 10:42:10;;;;;;;21.63;20.13;;;;;;;-6.68;100.00;102556.63;5001002;28;20049;-54
2024/01/09 10:44:40;;;;;;;25.05;23.17;;;;;;;-6.04;100.00;102556.22;4998787;28;20061;-54
2024/01/09 10:47:10;;;;;;;22.40;21.00;;;;;;;-3.66;100.00;102540.63;5003970;28;20134;-59
2024/01/09 10:49:40;;;;;;;24.63;23.02;;;;;;;-7.18;100.00;102553.88;4999259;28;20126;-60
2024/01/09 10:52:12;;;;;;;20.60;19.30;;;;;;;-6.83;100.00;102543.38;5001651;28;20554;-59
2024/01/09 10:54:41;;;;;;;21.10;19.83;;;;;;;-7.17;100.00;102545.28;5000017;28;20060;-59
2024/01/09 10:57:12;;;;;;;21.80;20.20;;;;;;;-7.07;100.00;102556.16;5001186;28;20057;-59
2024/01/09 10:59:41;;;;;;;21.00;19.70;;;;;;;-7.07;100.00;102555.31;4999631;28;20054;-59
2024/01/09 11:02:15;;;;;;;21.00;19.70;;;;;;;-7.24;100.00;102563.56;5000039;28;20479;-59
2024/01/09 11:04:43;;;;;;;21.13;19.73;;;;;;;-7.02;100.00;102550.84;4994291;28;20454;-54